Rechercher aéroport 
image banner adimage banner adimage banner ad
image banner ad

KIZA - Santa Ynez

Situé à Santa Ynez, United States

ICAO - IZA, IATA - SQA

Données fournies par Airmate  

Information générale

Coordonnées: N34°36'25" W120°4'32"
Élévation : 674 feet MSL.
Variation magnétique : 14° East
Voir autres Aéroports à California

Données opérationnelles

Special qualification required
Heure actuelle UTC:
Heure actuelle locale:
Météo
METAR: KIZA 251615Z AUTO 00000KT 10SM SCT004 15/12 A3000 RMK AO2
Voir NOTAMs / SUP AIP / TFR affectant cet aéroport [VIEW]
Fréquences de communication: [VIEW]

Pistes:

Identifiant RWYQFULongueur (ft)Largeur (ft)SurfaceLDA (ft)
0898°280375ASPH
26278°280375ASPH

Coordonnées de l'aéroport

Adresse: Santa Ynez United States

Vue satellite de KIZA